sensor_id;sensor_type;location;lat;lon;timestamp;temperature;humidity
12853;DHT22;6495;51.808;7.478;2023-09-07T00:02:13;21.60;99.60
12853;DHT22;6495;51.808;7.478;2023-09-07T00:04:42;21.60;99.70
12853;DHT22;6495;51.808;7.478;2023-09-07T00:07:12;21.50;99.80
12853;DHT22;6495;51.808;7.478;2023-09-07T00:09:40;21.50;99.90
12853;DHT22;6495;51.808;7.478;2023-09-07T00:12:08;21.40;99.90
12853;DHT22;6495;51.808;7.478;2023-09-07T00:14:36;21.30;99.90
12853;DHT22;6495;51.808;7.478;2023-09-07T00:17:04;21.30;99.90
12853;DHT22;6495;51.808;7.478;2023-09-07T00:19:33;21.30;99.90
12853;DHT22;6495;51.808;7.478;2023-09-07T00:22:04;21.20;99.90
12853;DHT22;6495;51.808;7.478;2023-09-07T00:24:33;21.20;99.90
12853;DHT22;6495;51.808;7.478;2023-09-07T00:27:02;21.20;99.90
12853;DHT22;6495;51.808;7.478;2023-09-07T00:29:32;21.10;99.90
12853;DHT22;6495;51.808;7.478;2023-09-07T00:32:00;21.10;99.90
12853;DHT22;6495;51.808;7.478;2023-09-07T00:34:29;21.10;99.90
12853;DHT22;6495;51.808;7.478;2023-09-07T00:36:57;21.00;99.90
12853;DHT22;6495;51.808;7.478;2023-09-07T00:39:26;21.00;99.90
12853;DHT22;6495;51.808;7.478;2023-09-07T00:41:55;21.00;99.90
12853;DHT22;6495;51.808;7.478;2023-09-07T00:44:23;20.90;99.90
12853;DHT22;6495;51.808;7.478;2023-09-07T00:46:52;20.90;99.90
12853;DHT22;6495;51.808;7.478;2023-09-07T00:49:20;20.80;99.90
12853;DHT22;6495;51.808;7.478;2023-09-07T00:51:48;20.80;99.90
12853;DHT22;6495;51.808;7.478;2023-09-07T00:54:17;20.80;99.90
12853;DHT22;6495;51.808;7.478;2023-09-07T00:56:47;20.70;99.90
12853;DHT22;6495;51.808;7.478;2023-09-07T00:59:17;20.70;99.90
12853;DHT22;6495;51.808;7.478;2023-09-07T01:01:46;20.60;99.90
12853;DHT22;6495;51.808;7.478;2023-09-07T01:04:18;20.60;99.90
12853;DHT22;6495;51.808;7.478;2023-09-07T01:06:50;20.50;99.90
12853;DHT22;6495;51.808;7.478;2023-09-07T01:09:25;20.50;99.90
12853;DHT22;6495;51.808;7.478;2023-09-07T01:11:58;20.50;99.90
12853;DHT22;6495;51.808;7.478;2023-09-07T01:14:28;20.40;99.90
12853;DHT22;6495;51.808;7.478;2023-09-07T01:16:56;20.40;99.90
12853;DHT22;6495;51.808;7.478;2023-09-07T01:19:25;20.40;99.90
12853;DHT22;6495;51.808;7.478;2023-09-07T01:21:54;20.30;99.90
12853;DHT22;6495;51.808;7.478;2023-09-07T01:24:24;20.30;99.90
12853;DHT22;6495;51.808;7.478;2023-09-07T01:26:57;20.30;99.90
12853;DHT22;6495;51.808;7.478;2023-09-07T01:29:26;20.30;99.90
12853;DHT22;6495;51.808;7.478;2023-09-07T01:31:56;20.20;99.90
12853;DHT22;6495;51.808;7.478;2023-09-07T01:34:25;20.20;99.90
12853;DHT22;6495;51.808;7.478;2023-09-07T01:36:55;20.20;99.90
12853;DHT22;6495;51.808;7.478;2023-09-07T01:39:23;20.20;99.90
12853;DHT22;6495;51.808;7.478;2023-09-07T01:41:51;20.10;99.90
12853;DHT22;6495;51.808;7.478;2023-09-07T01:44:20;20.10;99.90
12853;DHT22;6495;51.808;7.478;2023-09-07T01:46:48;20.10;99.90
12853;DHT22;6495;51.808;7.478;2023-09-07T01:49:17;20.00;99.90
12853;DHT22;6495;51.808;7.478;2023-09-07T01:51:45;20.00;99.90
12853;DHT22;6495;51.808;7.478;2023-09-07T01:54:15;20.00;99.90
12853;DHT22;6495;51.808;7.478;2023-09-07T01:56:43;19.90;99.90
12853;DHT22;6495;51.808;7.478;2023-09-07T01:59:11;19.90;99.90
12853;DHT22;6495;51.808;7.478;2023-09-07T02:01:40;19.90;99.90
12853;DHT22;6495;51.808;7.478;2023-09-07T02:04:08;19.80;99.90
12853;DHT22;6495;51.808;7.478;2023-09-07T02:06:37;19.80;99.90
12853;DHT22;6495;51.808;7.478;2023-09-07T02:09:06;19.70;99.90
12853;DHT22;6495;51.808;7.478;2023-09-07T02:11:37;19.70;99.90
12853;DHT22;6495;51.808;7.478;2023-09-07T02:14:06;19.70;99.90
12853;DHT22;6495;51.808;7.478;2023-09-07T02:16:36;19.60;99.90
12853;DHT22;6495;51.808;7.478;2023-09-07T02:19:05;19.60;99.90
12853;DHT22;6495;51.808;7.478;2023-09-07T02:21:34;19.50;99.90
12853;DHT22;6495;51.808;7.478;2023-09-07T02:24:03;19.50;99.90
12853;DHT22;6495;51.808;7.478;2023-09-07T02:26:31;19.50;99.90
12853;DHT22;6495;51.808;7.478;2023-09-07T02:29:01;19.50;99.90
12853;DHT22;6495;51.808;7.478;2023-09-07T02:31:33;19.40;99.90
12853;DHT22;6495;51.808;7.478;2023-09-07T02:34:01;19.40;99.90
12853;DHT22;6495;51.808;7.478;2023-09-07T02:36:31;19.40;99.90
12853;DHT22;6495;51.808;7.478;2023-09-07T02:38:59;19.30;99.90
12853;DHT22;6495;51.808;7.478;2023-09-07T02:41:28;19.30;99.90
12853;DHT22;6495;51.808;7.478;2023-09-07T02:43:56;19.30;99.90
12853;DHT22;6495;51.808;7.478;2023-09-07T02:46:26;19.30;99.90
12853;DHT22;6495;51.808;7.478;2023-09-07T02:48:55;19.20;99.90
12853;DHT22;6495;51.808;7.478;2023-09-07T02:51:25;19.20;99.90
12853;DHT22;6495;51.808;7.478;2023-09-07T02:53:56;19.20;99.90
12853;DHT22;6495;51.808;7.478;2023-09-07T02:56:25;19.20;99.90
12853;DHT22;6495;51.808;7.478;2023-09-07T02:58:53;19.10;99.90
12853;DHT22;6495;51.808;7.478;2023-09-07T03:01:22;19.10;99.90
12853;DHT22;6495;51.808;7.478;2023-09-07T03:03:52;19.10;99.90
12853;DHT22;6495;51.808;7.478;2023-09-07T03:06:20;19.10;99.90
12853;DHT22;6495;51.808;7.478;2023-09-07T03:08:51;19.10;99.90
12853;DHT22;6495;51.808;7.478;2023-09-07T03:11:20;19.00;99.90
12853;DHT22;6495;51.808;7.478;2023-09-07T03:13:49;19.00;99.90
12853;DHT22;6495;51.808;7.478;2023-09-07T03:16:17;19.00;99.90
12853;DHT22;6495;51.808;7.478;2023-09-07T03:18:46;19.00;99.90
12853;DHT22;6495;51.808;7.478;2023-09-07T03:21:16;18.90;99.90
12853;DHT22;6495;51.808;7.478;2023-09-07T03:23:45;18.90;99.90
12853;DHT22;6495;51.808;7.478;2023-09-07T03:26:14;18.90;99.90
12853;DHT22;6495;51.808;7.478;2023-09-07T03:28:43;18.80;99.90
12853;DHT22;6495;51.808;7.478;2023-09-07T03:31:12;18.80;99.90
12853;DHT22;6495;51.808;7.478;2023-09-07T03:33:41;18.80;99.90
12853;DHT22;6495;51.808;7.478;2023-09-07T03:36:09;18.80;99.90
12853;DHT22;6495;51.808;7.478;2023-09-07T03:38:43;18.70;99.90
12853;DHT22;6495;51.808;7.478;2023-09-07T03:41:13;18.70;99.90
12853;DHT22;6495;51.808;7.478;2023-09-07T03:43:41;18.70;99.90
12853;DHT22;6495;51.808;7.478;2023-09-07T03:46:09;18.60;99.90
12853;DHT22;6495;51.808;7.478;2023-09-07T03:48:38;18.60;99.90
12853;DHT22;6495;51.808;7.478;2023-09-07T03:51:08;18.60;99.90
12853;DHT22;6495;51.808;7.478;2023-09-07T03:53:36;18.60;99.90
12853;DHT22;6495;51.808;7.478;2023-09-07T03:56:06;18.60;99.90
12853;DHT22;6495;51.808;7.478;2023-09-07T03:58:34;18.50;99.90
12853;DHT22;6495;51.808;7.478;2023-09-07T04:01:02;18.50;99.90
12853;DHT22;6495;51.808;7.478;2023-09-07T04:03:31;18.50;99.90
12853;DHT22;6495;51.808;7.478;2023-09-07T04:05:59;18.50;99.90
12853;DHT22;6495;51.808;7.478;2023-09-07T04:08:28;18.50;99.90
12853;DHT22;6495;51.808;7.478;2023-09-07T04:10:57;18.50;99.90
12853;DHT22;6495;51.808;7.478;2023-09-07T04:13:26;18.40;99.90
12853;DHT22;6495;51.808;7.478;2023-09-07T04:15:54;18.40;99.90
12853;DHT22;6495;51.808;7.478;2023-09-07T04:18:29;18.40;99.90
12853;DHT22;6495;51.808;7.478;2023-09-07T04:21:05;18.40;99.90
12853;DHT22;6495;51.808;7.478;2023-09-07T04:23:34;18.40;99.90
12853;DHT22;6495;51.808;7.478;2023-09-07T04:26:07;18.30;99.90
12853;DHT22;6495;51.808;7.478;2023-09-07T04:28:38;18.40;99.90
12853;DHT22;6495;51.808;7.478;2023-09-07T04:31:07;18.30;99.90
12853;DHT22;6495;51.808;7.478;2023-09-07T04:33:35;18.30;99.90
12853;DHT22;6495;51.808;7.478;2023-09-07T04:36:08;18.30;99.90
12853;DHT22;6495;51.808;7.478;2023-09-07T04:38:38;18.20;99.90
12853;DHT22;6495;51.808;7.478;2023-09-07T04:41:07;18.20;99.90
12853;DHT22;6495;51.808;7.478;2023-09-07T04:43:38;18.20;99.90
12853;DHT22;6495;51.808;7.478;2023-09-07T04:46:10;18.20;99.90
12853;DHT22;6495;51.808;7.478;2023-09-07T04:48:41;18.10;99.90
12853;DHT22;6495;51.808;7.478;2023-09-07T04:51:10;18.10;99.90
12853;DHT22;6495;51.808;7.478;2023-09-07T04:53:39;18.10;99.90
12853;DHT22;6495;51.808;7.478;2023-09-07T04:56:08;18.00;99.90
12853;DHT22;6495;51.808;7.478;2023-09-07T04:58:39;18.00;99.90
12853;DHT22;6495;51.808;7.478;2023-09-07T05:01:09;18.00;99.90
12853;DHT22;6495;51.808;7.478;2023-09-07T05:03:41;17.90;99.90
12853;DHT22;6495;51.808;7.478;2023-09-07T05:06:11;17.90;99.90
12853;DHT22;6495;51.808;7.478;2023-09-07T05:08:41;17.90;99.90
12853;DHT22;6495;51.808;7.478;2023-09-07T05:11:10;17.90;99.90
12853;DHT22;6495;51.808;7.478;2023-09-07T05:13:40;17.80;99.90
12853;DHT22;6495;51.808;7.478;2023-09-07T05:16:08;17.90;99.90
12853;DHT22;6495;51.808;7.478;2023-09-07T05:18:37;17.80;99.90
12853;DHT22;6495;51.808;7.478;2023-09-07T05:21:12;17.80;99.90
12853;DHT22;6495;51.808;7.478;2023-09-07T05:23:41;17.80;99.90
12853;DHT22;6495;51.808;7.478;2023-09-07T05:26:10;17.80;99.90
12853;DHT22;6495;51.808;7.478;2023-09-07T05:28:41;17.80;99.90
12853;DHT22;6495;51.808;7.478;2023-09-07T05:31:10;17.80;99.90
12853;DHT22;6495;51.808;7.478;2023-09-07T05:33:39;17.80;99.90
12853;DHT22;6495;51.808;7.478;2023-09-07T05:36:07;17.80;99.90
12853;DHT22;6495;51.808;7.478;2023-09-07T05:38:35;17.80;99.90
12853;DHT22;6495;51.808;7.478;2023-09-07T05:41:05;17.80;99.90
12853;DHT22;6495;51.808;7.478;2023-09-07T05:43:34;17.80;99.90
12853;DHT22;6495;51.808;7.478;2023-09-07T05:46:04;17.80;99.90
12853;DHT22;6495;51.808;7.478;2023-09-07T05:48:33;17.80;99.90
12853;DHT22;6495;51.808;7.478;2023-09-07T05:51:02;17.80;99.90
12853;DHT22;6495;51.808;7.478;2023-09-07T05:53:30;17.80;99.90
12853;DHT22;6495;51.808;7.478;2023-09-07T05:55:58;17.80;99.90
12853;DHT22;6495;51.808;7.478;2023-09-07T05:58:27;17.80;99.90
12853;DHT22;6495;51.808;7.478;2023-09-07T06:00:56;17.80;99.90
12853;DHT22;6495;51.808;7.478;2023-09-07T06:03:26;17.80;99.90
12853;DHT22;6495;51.808;7.478;2023-09-07T06:05:56;17.90;99.90
12853;DHT22;6495;51.808;7.478;2023-09-07T06:08:25;17.90;99.90
12853;DHT22;6495;51.808;7.478;2023-09-07T06:10:53;17.90;99.90
12853;DHT22;6495;51.808;7.478;2023-09-07T06:13:22;17.90;99.90
12853;DHT22;6495;51.808;7.478;2023-09-07T06:15:50;17.90;99.90
12853;DHT22;6495;51.808;7.478;2023-09-07T06:18:18;18.00;99.90
12853;DHT22;6495;51.808;7.478;2023-09-07T06:20:48;18.00;99.90
12853;DHT22;6495;51.808;7.478;2023-09-07T06:23:17;18.00;99.90
12853;DHT22;6495;51.808;7.478;2023-09-07T06:25:45;18.00;99.90
12853;DHT22;6495;51.808;7.478;2023-09-07T06:28:13;18.10;99.90
12853;DHT22;6495;51.808;7.478;2023-09-07T06:30:42;18.10;99.90
12853;DHT22;6495;51.808;7.478;2023-09-07T06:33:10;18.10;99.90
12853;DHT22;6495;51.808;7.478;2023-09-07T06:35:39;18.20;99.90
12853;DHT22;6495;51.808;7.478;2023-09-07T06:38:09;18.20;99.90
12853;DHT22;6495;51.808;7.478;2023-09-07T06:40:41;18.30;99.90
12853;DHT22;6495;51.808;7.478;2023-09-07T06:43:15;18.30;99.90
12853;DHT22;6495;51.808;7.478;2023-09-07T06:45:44;18.30;99.90
12853;DHT22;6495;51.808;7.478;2023-09-07T06:48:14;18.40;99.90
12853;DHT22;6495;51.808;7.478;2023-09-07T06:50:42;18.40;99.90
12853;DHT22;6495;51.808;7.478;2023-09-07T06:53:12;18.50;99.90
12853;DHT22;6495;51.808;7.478;2023-09-07T06:55:40;18.50;99.90
12853;DHT22;6495;51.808;7.478;2023-09-07T06:58:09;18.60;99.90
12853;DHT22;6495;51.808;7.478;2023-09-07T07:00:37;18.60;99.90
12853;DHT22;6495;51.808;7.478;2023-09-07T07:03:05;18.70;99.90
12853;DHT22;6495;51.808;7.478;2023-09-07T07:05:33;18.80;99.90
12853;DHT22;6495;51.808;7.478;2023-09-07T07:08:02;18.80;99.90
12853;DHT22;6495;51.808;7.478;2023-09-07T07:10:32;18.90;99.90
12853;DHT22;6495;51.808;7.478;2023-09-07T07:13:00;19.00;99.90
12853;DHT22;6495;51.808;7.478;2023-09-07T07:15:30;19.00;99.90
12853;DHT22;6495;51.808;7.478;2023-09-07T07:17:58;19.10;99.90
12853;DHT22;6495;51.808;7.478;2023-09-07T07:20:27;19.30;99.90
12853;DHT22;6495;51.808;7.478;2023-09-07T07:22:55;19.30;99.90
12853;DHT22;6495;51.808;7.478;2023-09-07T07:25:24;19.40;99.90
12853;DHT22;6495;51.808;7.478;2023-09-07T07:27:53;19.50;99.90
12853;DHT22;6495;51.808;7.478;2023-09-07T07:30:22;19.60;99.90
12853;DHT22;6495;51.808;7.478;2023-09-07T07:32:50;19.70;99.90
12853;DHT22;6495;51.808;7.478;2023-09-07T07:35:19;19.80;99.90
12853;DHT22;6495;51.808;7.478;2023-09-07T07:37:48;19.90;99.90
12853;DHT22;6495;51.808;7.478;2023-09-07T07:40:18;20.10;99.90
12853;DHT22;6495;51.808;7.478;2023-09-07T07:42:47;20.20;99.90
12853;DHT22;6495;51.808;7.478;2023-09-07T07:45:17;20.30;99.90
12853;DHT22;6495;51.808;7.478;2023-09-07T07:47:50;20.50;99.90
12853;DHT22;6495;51.808;7.478;2023-09-07T07:50:19;20.60;99.90
12853;DHT22;6495;51.808;7.478;2023-09-07T07:52:48;20.80;99.90
12853;DHT22;6495;51.808;7.478;2023-09-07T07:55:16;20.90;99.90
12853;DHT22;6495;51.808;7.478;2023-09-07T07:57:45;21.10;99.90
12853;DHT22;6495;51.808;7.478;2023-09-07T08:00:14;21.30;99.90
12853;DHT22;6495;51.808;7.478;2023-09-07T08:02:52;21.50;99.90
12853;DHT22;6495;51.808;7.478;2023-09-07T08:05:20;21.60;99.90
12853;DHT22;6495;51.808;7.478;2023-09-07T08:07:49;21.80;99.90
12853;DHT22;6495;51.808;7.478;2023-09-07T08:10:20;21.90;99.90
12853;DHT22;6495;51.808;7.478;2023-09-07T08:12:53;22.10;99.90
12853;DHT22;6495;51.808;7.478;2023-09-07T08:15:22;22.30;99.90
12853;DHT22;6495;51.808;7.478;2023-09-07T08:17:53;22.50;99.90
12853;DHT22;6495;51.808;7.478;2023-09-07T08:20:32;22.60;99.90
12853;DHT22;6495;51.808;7.478;2023-09-07T08:23:01;22.80;99.90
12853;DHT22;6495;51.808;7.478;2023-09-07T08:25:32;22.90;99.90
12853;DHT22;6495;51.808;7.478;2023-09-07T08:28:01;23.10;99.90
12853;DHT22;6495;51.808;7.478;2023-09-07T08:30:33;23.30;99.90
12853;DHT22;6495;51.808;7.478;2023-09-07T08:33:04;23.40;99.90
12853;DHT22;6495;51.808;7.478;2023-09-07T08:35:33;23.60;99.90
12853;DHT22;6495;51.808;7.478;2023-09-07T08:38:04;23.70;99.90
12853;DHT22;6495;51.808;7.478;2023-09-07T08:40:35;23.90;99.90
12853;DHT22;6495;51.808;7.478;2023-09-07T08:43:09;24.00;99.90
12853;DHT22;6495;51.808;7.478;2023-09-07T08:45:44;24.20;99.90
12853;DHT22;6495;51.808;7.478;2023-09-07T08:48:18;24.30;99.90
12853;DHT22;6495;51.808;7.478;2023-09-07T08:50:48;24.40;99.90
12853;DHT22;6495;51.808;7.478;2023-09-07T08:53:19;24.50;99.90
12853;DHT22;6495;51.808;7.478;2023-09-07T08:55:48;24.60;99.90
12853;DHT22;6495;51.808;7.478;2023-09-07T08:58:17;24.70;99.90
12853;DHT22;6495;51.808;7.478;2023-09-07T09:00:45;24.80;99.90
12853;DHT22;6495;51.808;7.478;2023-09-07T09:03:17;24.90;99.90
12853;DHT22;6495;51.808;7.478;2023-09-07T09:05:49;25.00;99.90
12853;DHT22;6495;51.808;7.478;2023-09-07T09:08:18;25.10;99.90
12853;DHT22;6495;51.808;7.478;2023-09-07T09:10:59;25.20;99.90
12853;DHT22;6495;51.808;7.478;2023-09-07T09:13:31;25.30;99.90
12853;DHT22;6495;51.808;7.478;2023-09-07T09:16:03;25.40;99.90
12853;DHT22;6495;51.808;7.478;2023-09-07T09:18:34;25.60;99.90
12853;DHT22;6495;51.808;7.478;2023-09-07T09:21:03;25.70;99.90
12853;DHT22;6495;51.808;7.478;2023-09-07T09:23:33;25.90;99.90
12853;DHT22;6495;51.808;7.478;2023-09-07T09:26:03;26.00;99.90
12853;DHT22;6495;51.808;7.478;2023-09-07T09:28:35;26.10;99.90
12853;DHT22;6495;51.808;7.478;2023-09-07T09:31:04;26.20;99.90
12853;DHT22;6495;51.808;7.478;2023-09-07T09:33:39;26.30;99.90
12853;DHT22;6495;51.808;7.478;2023-09-07T09:36:08;26.50;99.90
12853;DHT22;6495;51.808;7.478;2023-09-07T09:38:37;26.60;99.90
12853;DHT22;6495;51.808;7.478;2023-09-07T09:41:06;26.60;99.90
12853;DHT22;6495;51.808;7.478;2023-09-07T09:43:38;26.80;99.90
12853;DHT22;6495;51.808;7.478;2023-09-07T09:46:08;26.90;99.90
12853;DHT22;6495;51.808;7.478;2023-09-07T09:48:54;27.00;99.90
12853;DHT22;6495;51.808;7.478;2023-09-07T09:51:30;27.10;99.90
12853;DHT22;6495;51.808;7.478;2023-09-07T09:54:11;27.20;99.90
12853;DHT22;6495;51.808;7.478;2023-09-07T09:56:42;27.20;99.90
12853;DHT22;6495;51.808;7.478;2023-09-07T09:59:13;27.30;99.90
12853;DHT22;6495;51.808;7.478;2023-09-07T10:01:53;27.40;99.90
12853;DHT22;6495;51.808;7.478;2023-09-07T10:04:41;27.50;99.90
12853;DHT22;6495;51.808;7.478;2023-09-07T10:07:47;27.60;99.90
12853;DHT22;6495;51.808;7.478;2023-09-07T10:10:46;27.80;99.90
12853;DHT22;6495;51.808;7.478;2023-09-07T10:13:45;27.90;99.90
12853;DHT22;6495;51.808;7.478;2023-09-07T10:16:44;28.00;99.90
12853;DHT22;6495;51.808;7.478;2023-09-07T10:19:33;28.10;99.90
12853;DHT22;6495;51.808;7.478;2023-09-07T10:22:28;28.20;99.90
12853;DHT22;6495;51.808;7.478;2023-09-07T10:25:21;28.30;99.90
12853;DHT22;6495;51.808;7.478;2023-09-07T10:28:01;28.40;99.90
12853;DHT22;6495;51.808;7.478;2023-09-07T10:31:15;28.50;99.90
12853;DHT22;6495;51.808;7.478;2023-09-07T10:34:10;28.60;99.90
12853;DHT22;6495;51.808;7.478;2023-09-07T10:36:59;28.60;99.90
12853;DHT22;6495;51.808;7.478;2023-09-07T10:39:35;28.70;99.90
12853;DHT22;6495;51.808;7.478;2023-09-07T10:42:25;28.80;99.90
12853;DHT22;6495;51.808;7.478;2023-09-07T10:45:09;29.00;99.90
12853;DHT22;6495;51.808;7.478;2023-09-07T10:47:52;29.10;99.90
12853;DHT22;6495;51.808;7.478;2023-09-07T10:50:43;29.20;99.90
12853;DHT22;6495;51.808;7.478;2023-09-07T10:53:29;29.30;99.90
12853;DHT22;6495;51.808;7.478;2023-09-07T10:56:11;29.40;99.90
12853;DHT22;6495;51.808;7.478;2023-09-07T10:58:56;29.50;99.90
12853;DHT22;6495;51.808;7.478;2023-09-07T11:01:39;29.50;99.50
12853;DHT22;6495;51.808;7.478;2023-09-07T11:04:18;29.60;99.00
12853;DHT22;6495;51.808;7.478;2023-09-07T11:07:01;29.70;98.80
12853;DHT22;6495;51.808;7.478;2023-09-07T11:09:44;29.70;98.60
12853;DHT22;6495;51.808;7.478;2023-09-07T11:12:16;29.90;97.80
12853;DHT22;6495;51.808;7.478;2023-09-07T11:15:00;29.90;97.40
12853;DHT22;6495;51.808;7.478;2023-09-07T11:17:32;30.00;97.50
12853;DHT22;6495;51.808;7.478;2023-09-07T11:20:03;30.00;97.40
12853;DHT22;6495;51.808;7.478;2023-09-07T11:22:34;30.10;97.10
12853;DHT22;6495;51.808;7.478;2023-09-07T11:25:21;30.10;97.00
12853;DHT22;6495;51.808;7.478;2023-09-07T11:27:52;30.20;96.80
12853;DHT22;6495;51.808;7.478;2023-09-07T11:30:22;30.30;96.30
12853;DHT22;6495;51.808;7.478;2023-09-07T11:32:59;30.30;96.00
12853;DHT22;6495;51.808;7.478;2023-09-07T11:35:29;30.40;96.00
12853;DHT22;6495;51.808;7.478;2023-09-07T11:38:03;30.50;95.70
12853;DHT22;6495;51.808;7.478;2023-09-07T11:40:35;30.60;95.40
12853;DHT22;6495;51.808;7.478;2023-09-07T11:43:06;30.60;95.10
12853;DHT22;6495;51.808;7.478;2023-09-07T11:45:35;30.60;94.80
12853;DHT22;6495;51.808;7.478;2023-09-07T11:48:06;30.70;94.50
12853;DHT22;6495;51.808;7.478;2023-09-07T11:50:37;30.80;94.10
12853;DHT22;6495;51.808;7.478;2023-09-07T11:53:07;30.80;93.80
12853;DHT22;6495;51.808;7.478;2023-09-07T11:55:36;30.90;93.60
12853;DHT22;6495;51.808;7.478;2023-09-07T11:58:08;30.90;93.40
12853;DHT22;6495;51.808;7.478;2023-09-07T12:00:36;30.90;93.00
12853;DHT22;6495;51.808;7.478;2023-09-07T12:03:05;31.00;92.90
12853;DHT22;6495;51.808;7.478;2023-09-07T12:05:33;31.10;92.70
12853;DHT22;6495;51.808;7.478;2023-09-07T12:08:03;31.10;92.60
12853;DHT22;6495;51.808;7.478;2023-09-07T12:10:33;31.20;92.20
12853;DHT22;6495;51.808;7.478;2023-09-07T12:13:02;31.30;91.90
12853;DHT22;6495;51.808;7.478;2023-09-07T12:15:33;31.30;91.00
12853;DHT22;6495;51.808;7.478;2023-09-07T12:18:26;31.40;91.00
12853;DHT22;6495;51.808;7.478;2023-09-07T12:42:22;31.40;87.60
12853;DHT22;6495;51.808;7.478;2023-09-07T12:44:51;31.40;90.10
12853;DHT22;6495;51.808;7.478;2023-09-07T12:47:20;31.50;89.60
12853;DHT22;6495;51.808;7.478;2023-09-07T12:49:49;31.50;88.60
12853;DHT22;6495;51.808;7.478;2023-09-07T12:52:23;31.50;87.90
12853;DHT22;6495;51.808;7.478;2023-09-07T12:54:51;31.50;87.70
12853;DHT22;6495;51.808;7.478;2023-09-07T12:57:19;31.60;87.30
12853;DHT22;6495;51.808;7.478;2023-09-07T12:59:49;31.60;87.40
12853;DHT22;6495;51.808;7.478;2023-09-07T13:02:17;31.70;86.90
12853;DHT22;6495;51.808;7.478;2023-09-07T13:07:56;31.70;85.10
12853;DHT22;6495;51.808;7.478;2023-09-07T13:10:26;31.80;86.60
12853;DHT22;6495;51.808;7.478;2023-09-07T13:12:54;31.80;85.70
12853;DHT22;6495;51.808;7.478;2023-09-07T13:15:24;31.80;85.30
12853;DHT22;6495;51.808;7.478;2023-09-07T13:17:53;31.70;84.60
12853;DHT22;6495;51.808;7.478;2023-09-07T13:20:21;31.70;84.20
12853;DHT22;6495;51.808;7.478;2023-09-07T13:22:49;31.70;84.30
12853;DHT22;6495;51.808;7.478;2023-09-07T13:25:18;31.70;84.20
12853;DHT22;6495;51.808;7.478;2023-09-07T13:27:46;31.70;84.00
12853;DHT22;6495;51.808;7.478;2023-09-07T13:30:16;31.80;84.00
12853;DHT22;6495;51.808;7.478;2023-09-07T13:32:45;31.80;83.40
12853;DHT22;6495;51.808;7.478;2023-09-07T13:35:14;31.80;82.60
12853;DHT22;6495;51.808;7.478;2023-09-07T13:37:42;31.80;82.20
12853;DHT22;6495;51.808;7.478;2023-09-07T13:40:11;31.70;81.70
12853;DHT22;6495;51.808;7.478;2023-09-07T13:42:41;31.60;81.60
12853;DHT22;6495;51.808;7.478;2023-09-07T13:45:10;31.60;81.10
12853;DHT22;6495;51.808;7.478;2023-09-07T13:47:38;31.60;81.00
12853;DHT22;6495;51.808;7.478;2023-09-07T13:50:08;31.70;81.00
12853;DHT22;6495;51.808;7.478;2023-09-07T13:52:36;31.60;80.00
12853;DHT22;6495;51.808;7.478;2023-09-07T13:55:06;31.60;79.80
12853;DHT22;6495;51.808;7.478;2023-09-07T13:57:35;31.60;80.10
12853;DHT22;6495;51.808;7.478;2023-09-07T14:00:03;31.60;80.10
12853;DHT22;6495;51.808;7.478;2023-09-07T14:02:32;31.60;80.70
12853;DHT22;6495;51.808;7.478;2023-09-07T14:05:01;31.60;79.50
12853;DHT22;6495;51.808;7.478;2023-09-07T14:07:30;31.60;78.90
12853;DHT22;6495;51.808;7.478;2023-09-07T14:09:58;31.50;78.30
12853;DHT22;6495;51.808;7.478;2023-09-07T14:12:27;31.50;78.10
12853;DHT22;6495;51.808;7.478;2023-09-07T14:14:55;31.50;78.10
12853;DHT22;6495;51.808;7.478;2023-09-07T14:17:23;31.50;78.10
12853;DHT22;6495;51.808;7.478;2023-09-07T14:19:51;31.50;78.90
12853;DHT22;6495;51.808;7.478;2023-09-07T14:22:20;31.50;77.80
12853;DHT22;6495;51.808;7.478;2023-09-07T14:24:50;31.50;77.60
12853;DHT22;6495;51.808;7.478;2023-09-07T14:27:18;31.50;77.20
12853;DHT22;6495;51.808;7.478;2023-09-07T14:29:47;31.40;77.00
12853;DHT22;6495;51.808;7.478;2023-09-07T14:32:15;31.40;77.30
12853;DHT22;6495;51.808;7.478;2023-09-07T14:34:43;31.50;76.80
12853;DHT22;6495;51.808;7.478;2023-09-07T14:37:11;31.60;76.40
12853;DHT22;6495;51.808;7.478;2023-09-07T14:39:40;31.60;76.30
12853;DHT22;6495;51.808;7.478;2023-09-07T14:42:15;31.60;76.00
12853;DHT22;6495;51.808;7.478;2023-09-07T14:44:44;31.50;75.80
12853;DHT22;6495;51.808;7.478;2023-09-07T14:47:13;31.60;76.00
12853;DHT22;6495;51.808;7.478;2023-09-07T14:49:42;31.50;75.70
12853;DHT22;6495;51.808;7.478;2023-09-07T14:52:10;31.60;75.60
12853;DHT22;6495;51.808;7.478;2023-09-07T14:54:38;31.50;75.60
12853;DHT22;6495;51.808;7.478;2023-09-07T14:57:07;31.60;75.70
12853;DHT22;6495;51.808;7.478;2023-09-07T14:59:37;31.60;75.60
12853;DHT22;6495;51.808;7.478;2023-09-07T15:02:06;31.60;75.70
12853;DHT22;6495;51.808;7.478;2023-09-07T15:04:34;31.60;75.40
12853;DHT22;6495;51.808;7.478;2023-09-07T15:07:03;31.60;75.10
12853;DHT22;6495;51.808;7.478;2023-09-07T15:09:31;31.60;74.90
12853;DHT22;6495;51.808;7.478;2023-09-07T15:11:59;31.50;74.80
12853;DHT22;6495;51.808;7.478;2023-09-07T15:14:27;31.50;74.70
12853;DHT22;6495;51.808;7.478;2023-09-07T15:16:57;31.60;74.80
12853;DHT22;6495;51.808;7.478;2023-09-07T15:19:25;31.60;74.60
12853;DHT22;6495;51.808;7.478;2023-09-07T15:21:53;31.60;74.40
12853;DHT22;6495;51.808;7.478;2023-09-07T15:24:21;31.60;74.30
12853;DHT22;6495;51.808;7.478;2023-09-07T15:26:50;31.60;73.70
12853;DHT22;6495;51.808;7.478;2023-09-07T15:29:18;31.60;73.80
12853;DHT22;6495;51.808;7.478;2023-09-07T15:31:47;31.50;73.70
12853;DHT22;6495;51.808;7.478;2023-09-07T15:34:18;31.50;73.60
12853;DHT22;6495;51.808;7.478;2023-09-07T15:36:46;31.50;73.60
12853;DHT22;6495;51.808;7.478;2023-09-07T15:39:15;31.60;73.60
12853;DHT22;6495;51.808;7.478;2023-09-07T15:41:43;31.50;73.20
12853;DHT22;6495;51.808;7.478;2023-09-07T15:44:11;31.50;73.30
12853;DHT22;6495;51.808;7.478;2023-09-07T15:46:39;31.50;73.50
12853;DHT22;6495;51.808;7.478;2023-09-07T15:49:08;31.50;73.40
12853;DHT22;6495;51.808;7.478;2023-09-07T15:51:37;31.50;73.30
12853;DHT22;6495;51.808;7.478;2023-09-07T15:54:05;31.50;73.20
12853;DHT22;6495;51.808;7.478;2023-09-07T15:56:34;31.50;73.30
12853;DHT22;6495;51.808;7.478;2023-09-07T15:59:02;31.60;73.40
12853;DHT22;6495;51.808;7.478;2023-09-07T16:01:30;31.50;73.20
12853;DHT22;6495;51.808;7.478;2023-09-07T16:03:59;31.50;73.10
12853;DHT22;6495;51.808;7.478;2023-09-07T16:06:27;31.60;73.00
12853;DHT22;6495;51.808;7.478;2023-09-07T16:08:57;31.60;72.80
12853;DHT22;6495;51.808;7.478;2023-09-07T16:11:25;31.60;72.60
12853;DHT22;6495;51.808;7.478;2023-09-07T16:13:54;31.60;72.70
12853;DHT22;6495;51.808;7.478;2023-09-07T16:16:22;31.60;72.50
12853;DHT22;6495;51.808;7.478;2023-09-07T16:18:50;31.50;72.00
12853;DHT22;6495;51.808;7.478;2023-09-07T16:21:19;31.40;72.00
12853;DHT22;6495;51.808;7.478;2023-09-07T16:23:49;31.40;72.30
12853;DHT22;6495;51.808;7.478;2023-09-07T16:26:19;31.40;72.30
12853;DHT22;6495;51.808;7.478;2023-09-07T16:28:47;31.40;72.40
12853;DHT22;6495;51.808;7.478;2023-09-07T16:31:16;31.40;73.10
12853;DHT22;6495;51.808;7.478;2023-09-07T16:33:44;31.40;72.60